Time;durP1;ratioP1;P1;durP2;ratioP2;P2;SDS_P1;SDS_P2;PMS_P1;PMS_P2;Temp;Humidity;BMP_temperature;BMP_pressure;BME280_temperature;BME280_humidity;BME280_pressure;Samples;Min_cycle;Max_cycle;Signal;HPM_P1;HPM_P2
2022/12/31 00:01:20;;;;;;;4.78;4.47;;;6.30;99.90;;;;;;5065115;28;20206;-80
2022/12/31 00:03:49;;;;;;;5.15;4.75;;;6.30;99.90;;;;;;5061604;28;20227;-79
2022/12/31 00:06:20;;;;;;;5.28;4.78;;;6.30;99.90;;;;;;5064838;28;20195;-82
2022/12/31 00:08:51;;;;;;;4.50;4.20;;;6.30;99.90;;;;;;5067864;28;20222;-80
2022/12/31 00:11:19;;;;;;;4.60;4.30;;;6.30;99.90;;;;;;5063598;28;20192;-81
2022/12/31 00:13:46;;;;;;;5.05;4.65;;;6.30;99.90;;;;;;5065146;28;20225;-80
2022/12/31 00:16:16;;;;;;;5.20;4.68;;;6.30;99.90;;;;;;5067025;28;20726;-80
2022/12/31 00:18:46;;;;;;;5.63;5.07;;;6.30;99.90;;;;;;5063820;28;20291;-80
2022/12/31 00:21:14;;;;;;;6.22;5.63;;;6.30;99.90;;;;;;5067735;28;20199;-80
2022/12/31 00:23:42;;;;;;;5.30;4.90;;;6.30;99.90;;;;;;5063250;28;20237;-80
2022/12/31 00:26:13;;;;;;;5.93;5.43;;;6.30;99.90;;;;;;5064016;28;20191;-80
2022/12/31 00:28:42;;;;;;;6.03;5.53;;;6.20;99.90;;;;;;5063841;28;20738;-80
2022/12/31 00:31:12;;;;;;;5.35;4.85;;;6.20;99.90;;;;;;5063028;28;20662;-79
2022/12/31 00:33:39;;;;;;;5.70;5.20;;;6.20;99.90;;;;;;5057776;28;20227;-79
2022/12/31 00:36:09;;;;;;;5.85;5.25;;;6.10;99.90;;;;;;5063466;28;20305;-79
2022/12/31 00:38:37;;;;;;;5.10;4.70;;;6.10;99.90;;;;;;5064344;28;20238;-81
2022/12/31 00:41:05;;;;;;;6.68;6.13;;;6.10;99.90;;;;;;5065482;28;20198;-79
2022/12/31 00:43:35;;;;;;;6.18;5.57;;;6.10;99.90;;;;;;5062385;28;20242;-82
2022/12/31 00:46:04;;;;;;;6.05;5.55;;;6.20;99.90;;;;;;5066782;28;20198;-79
2022/12/31 00:48:32;;;;;;;6.32;5.72;;;6.10;99.90;;;;;;5062601;28;20228;-79
2022/12/31 00:51:00;;;;;;;5.95;5.43;;;6.10;99.90;;;;;;5077437;28;20199;-86
2022/12/31 00:53:28;;;;;;;6.10;5.25;;;6.10;99.90;;;;;;5070590;28;20679;-80
2022/12/31 00:56:00;;;;;;;5.63;5.13;;;6.10;99.90;;;;;;5032095;28;20721;-80
2022/12/31 00:58:27;;;;;;;5.28;4.82;;;6.10;99.90;;;;;;5064226;28;20704;-79
2022/12/31 01:00:56;;;;;;;4.80;4.40;;;6.10;99.90;;;;;;5063205;28;20245;-80
2022/12/31 01:03:24;;;;;;;4.85;4.53;;;6.20;99.90;;;;;;5044071;28;20227;-81
2022/12/31 01:05:52;;;;;;;5.55;5.05;;;6.20;99.90;;;;;;5064998;28;20682;-80
2022/12/31 01:08:19;;;;;;;5.60;5.10;;;6.20;99.90;;;;;;5059678;28;20273;-80
2022/12/31 01:13:34;;;;;;;5.28;4.88;;;6.10;99.90;;;;;;5065158;28;20597;-81
2022/12/31 01:16:11;;;;;;;5.10;4.70;;;6.10;99.90;;;;;;5060646;28;20194;-79
2022/12/31 01:18:39;;;;;;;4.57;4.20;;;6.10;99.90;;;;;;5065729;28;20217;-84
2022/12/31 01:21:09;;;;;;;5.20;4.80;;;6.20;99.90;;;;;;5060254;28;20238;-82
2022/12/31 01:23:37;;;;;;;4.47;4.18;;;6.20;99.90;;;;;;5064369;28;20265;-80
2022/12/31 01:26:06;;;;;;;4.40;4.10;;;6.20;99.90;;;;;;5055967;28;20210;-87
2022/12/31 01:28:34;;;;;;;4.72;4.35;;;6.20;99.90;;;;;;5063314;28;20203;-81
2022/12/31 01:31:05;;;;;;;4.82;4.43;;;6.30;99.90;;;;;;5063122;28;20545;-81
2022/12/31 01:33:34;;;;;;;5.03;4.63;;;6.30;99.90;;;;;;5060236;28;20279;-80
2022/12/31 01:36:10;;;;;;;5.65;5.22;;;6.40;99.90;;;;;;5061565;28;20194;-81
2022/12/31 01:38:38;;;;;;;8.73;7.10;;;6.30;99.90;;;;;;5062661;28;20279;-79
2022/12/31 01:41:05;;;;;;;7.55;6.85;;;6.10;99.90;;;;;;5063826;28;20681;-81
2022/12/31 01:43:45;;;;;;;7.07;6.47;;;5.90;99.90;;;;;;5064185;28;20214;-81
2022/12/31 01:46:17;;;;;;;7.78;6.70;;;5.80;99.90;;;;;;5064844;28;20202;-79
2022/12/31 01:48:50;;;;;;;7.72;7.03;;;5.70;99.90;;;;;;5065342;28;20233;-80
2022/12/31 01:51:18;;;;;;;7.55;6.90;;;5.70;99.90;;;;;;5071939;28;20223;-80
2022/12/31 01:53:45;;;;;;;7.68;6.82;;;5.60;99.90;;;;;;5060717;28;20264;-79
2022/12/31 01:56:13;;;;;;;7.55;6.95;;;5.60;99.90;;;;;;5059193;28;20198;-80
2022/12/31 01:58:43;;;;;;;7.68;6.95;;;5.60;99.90;;;;;;5058535;28;20222;-79
2022/12/31 02:01:15;;;;;;;7.22;6.53;;;5.60;99.90;;;;;;5074776;28;20194;-84
2022/12/31 02:03:42;;;;;;;6.10;5.60;;;5.70;99.90;;;;;;5077449;28;20232;-79
2022/12/31 02:06:17;;;;;;;5.78;5.28;;;5.80;99.90;;;;;;5064134;28;20195;-79
2022/12/31 02:08:44;;;;;;;5.10;4.60;;;5.90;99.90;;;;;;5057701;28;20224;-80
2022/12/31 02:11:24;;;;;;;4.55;4.18;;;6.00;99.90;;;;;;5047676;28;20240;-80
2022/12/31 02:13:54;;;;;;;5.13;4.72;;;6.00;99.90;;;;;;5047882;28;20237;-80
2022/12/31 02:16:27;;;;;;;4.60;4.28;;;6.10;99.90;;;;;;5067868;28;20190;-82
2022/12/31 02:19:00;;;;;;;5.03;4.63;;;6.20;99.90;;;;;;5043842;28;20218;-79
2022/12/31 02:21:43;;;;;;;5.40;5.00;;;6.20;99.90;;;;;;5058989;28;20659;-80
2022/12/31 02:24:41;;;;;;;5.35;4.85;;;6.20;99.90;;;;;;5063487;28;20271;-79
2022/12/31 02:27:13;;;;;;;4.50;4.20;;;6.10;99.90;;;;;;5063196;28;20190;-79
2022/12/31 02:30:08;;;;;;;4.90;4.50;;;6.10;99.90;;;;;;5059969;28;20222;-80
2022/12/31 02:32:43;;;;;;;5.93;5.43;;;6.00;99.90;;;;;;5059116;28;20298;-80
2022/12/31 02:35:15;;;;;;;6.85;6.18;;;6.00;99.90;;;;;;5061368;28;20221;-81
2022/12/31 02:37:45;;;;;;;7.25;6.53;;;5.90;99.90;;;;;;5047986;28;20279;-80
2022/12/31 02:40:18;;;;;;;7.88;7.13;;;5.80;99.90;;;;;;5048780;28;20691;-80
2022/12/31 02:42:47;;;;;;;7.28;6.57;;;5.60;99.90;;;;;;5062615;28;20195;-81
2022/12/31 02:45:21;;;;;;;6.82;6.22;;;5.60;99.90;;;;;;5045294;28;20233;-80
2022/12/31 02:48:00;;;;;;;6.93;6.32;;;5.60;99.90;;;;;;5057984;28;20698;-81
2022/12/31 02:50:39;;;;;;;7.05;6.35;;;5.60;99.90;;;;;;5060671;28;21109;-81
2022/12/31 02:53:19;;;;;;;6.85;6.25;;;5.60;99.90;;;;;;5064001;28;20230;-79
2022/12/31 02:55:54;;;;;;;6.10;5.60;;;5.60;99.90;;;;;;5058427;28;20242;-81
2022/12/31 03:02:12;;;;;;;5.68;5.18;;;5.60;99.90;;;;;;5038682;28;20303;-79
2022/12/31 03:06:55;;;;;;;5.00;4.55;;;5.80;99.90;;;;;;5059252;28;20252;-79
2022/12/31 03:09:22;;;;;;;5.30;4.80;;;5.80;99.90;;;;;;5065275;28;20217;-79
2022/12/31 03:14:34;;;;;;;5.70;5.20;;;5.80;99.90;;;;;;5072679;28;20233;-80
2022/12/31 03:17:03;;;;;;;5.03;4.63;;;5.80;99.90;;;;;;5065024;28;20210;-80
2022/12/31 03:22:27;;;;;;;5.35;4.85;;;5.90;99.90;;;;;;5066445;28;20216;-79
2022/12/31 03:27:40;;;;;;;4.60;4.30;;;5.90;99.90;;;;;;5066029;28;20718;-79
2022/12/31 03:30:09;;;;;;;5.38;4.97;;;5.90;99.90;;;;;;5064101;28;20215;-81
2022/12/31 03:32:38;;;;;;;5.28;4.88;;;5.90;99.90;;;;;;5049153;28;20211;-79
2022/12/31 03:35:06;;;;;;;5.00;4.60;;;5.90;99.90;;;;;;5050006;28;20710;-80
2022/12/31 03:37:34;;;;;;;5.18;4.78;;;5.90;99.90;;;;;;5050467;28;20214;-80
2022/12/31 03:40:01;;;;;;;5.07;4.68;;;5.90;99.90;;;;;;5062708;28;20226;-79
2022/12/31 03:42:29;;;;;;;5.10;4.70;;;5.90;99.90;;;;;;5044308;28;20241;-80
2022/12/31 03:44:56;;;;;;;5.75;5.25;;;5.90;99.90;;;;;;5061439;28;20223;-81
2022/12/31 03:47:23;;;;;;;5.65;5.15;;;5.80;99.90;;;;;;5050605;28;20648;-82
2022/12/31 03:49:52;;;;;;;5.35;4.95;;;5.70;99.90;;;;;;5064683;28;20213;-82
2022/12/31 03:52:20;;;;;;;5.75;5.25;;;5.70;99.90;;;;;;5063187;28;20202;-83
2022/12/31 03:54:50;;;;;;;5.38;4.88;;;5.70;99.90;;;;;;5046894;28;20231;-86
2022/12/31 03:57:17;;;;;;;5.45;5.05;;;5.70;99.90;;;;;;5063385;28;20214;-80
2022/12/31 03:59:45;;;;;;;5.70;5.18;;;5.70;99.90;;;;;;5032397;28;20222;-83
2022/12/31 04:02:12;;;;;;;5.68;5.18;;;5.70;99.90;;;;;;5047679;28;20198;-80
2022/12/31 04:04:39;;;;;;;5.45;4.97;;;5.70;99.90;;;;;;5051840;28;20232;-79
2022/12/31 04:07:08;;;;;;;4.82;4.43;;;5.70;99.90;;;;;;5064691;28;20608;-79
2022/12/31 04:09:37;;;;;;;4.80;4.40;;;5.70;99.90;;;;;;5048446;28;20733;-80
2022/12/31 04:12:05;;;;;;;5.43;4.93;;;5.70;99.90;;;;;;5062646;28;20198;-80
2022/12/31 04:14:32;;;;;;;8.90;7.70;;;5.60;99.90;;;;;;5066210;28;20222;-81
2022/12/31 04:17:00;;;;;;;7.38;6.68;;;5.60;99.90;;;;;;5028861;28;20214;-82
2022/12/31 04:19:27;;;;;;;5.72;5.32;;;5.50;99.90;;;;;;5060536;28;20221;-81
2022/12/31 04:21:54;;;;;;;6.72;6.03;;;5.50;99.90;;;;;;5068522;28;20190;-80
2022/12/31 04:24:24;;;;;;;5.10;4.70;;;5.40;99.90;;;;;;5077193;28;20223;-79
2022/12/31 04:26:51;;;;;;;5.63;5.18;;;5.40;99.90;;;;;;5044744;28;20221;-81
2022/12/31 04:29:20;;;;;;;5.15;4.65;;;5.40;99.90;;;;;;5066988;28;20225;-82
2022/12/31 04:31:48;;;;;;;4.90;4.50;;;5.40;99.90;;;;;;5066919;28;20679;-81
2022/12/31 04:34:16;;;;;;;4.55;4.25;;;5.40;99.90;;;;;;5063652;28;20692;-79
2022/12/31 04:36:43;;;;;;;3.85;3.65;;;5.40;99.90;;;;;;5062458;28;20596;-79
2022/12/31 04:39:10;;;;;;;4.07;3.78;;;5.50;99.90;;;;;;5065109;28;20715;-79
2022/12/31 04:41:39;;;;;;;4.18;3.90;;;5.50;99.90;;;;;;5064321;28;20888;-82
2022/12/31 04:44:07;;;;;;;4.05;3.78;;;5.50;99.90;;;;;;5062705;28;20227;-80
2022/12/31 04:46:34;;;;;;;4.22;3.92;;;5.50;99.90;;;;;;5052384;28;20202;-79
2022/12/31 04:49:02;;;;;;;4.57;4.25;;;5.40;99.90;;;;;;5061861;28;20238;-79
2022/12/31 04:51:31;;;;;;;5.53;5.07;;;5.40;99.90;;;;;;5056539;28;20568;-80
2022/12/31 04:53:58;;;;;;;6.65;6.05;;;5.40;99.90;;;;;;5065708;28;20725;-80
2022/12/31 04:56:27;;;;;;;6.55;5.90;;;5.40;99.90;;;;;;5069268;28;20434;-79
2022/12/31 04:58:56;;;;;;;6.30;5.80;;;5.50;99.90;;;;;;5046720;28;20214;-84
2022/12/31 05:01:24;;;;;;;5.90;5.40;;;5.40;99.90;;;;;;5064254;28;20758;-79
2022/12/31 05:03:51;;;;;;;5.68;5.28;;;5.40;99.90;;;;;;5041136;28;20234;-83
2022/12/31 05:06:21;;;;;;;6.07;5.57;;;5.30;99.90;;;;;;5064446;28;20202;-82
2022/12/31 05:08:49;;;;;;;6.30;5.80;;;5.30;99.90;;;;;;5072815;28;20229;-80
2022/12/31 05:11:17;;;;;;;6.68;6.07;;;5.20;99.90;;;;;;5051463;28;20206;-79
2022/12/31 05:13:45;;;;;;;5.63;5.20;;;5.20;99.90;;;;;;5061804;28;20757;-81
2022/12/31 05:16:14;;;;;;;6.43;5.82;;;5.20;99.90;;;;;;5060322;28;20203;-81
2022/12/31 05:18:42;;;;;;;7.00;5.40;;;5.20;99.90;;;;;;5062763;28;20601;-80
2022/12/31 05:21:15;;;;;;;5.20;4.80;;;5.30;99.90;;;;;;5064453;28;20199;-79
2022/12/31 05:23:43;;;;;;;5.07;4.78;;;5.20;99.90;;;;;;5061460;28;20228;-79
2022/12/31 05:26:10;;;;;;;5.53;5.10;;;5.20;99.90;;;;;;5062283;28;20198;-79
2022/12/31 05:28:38;;;;;;;4.85;4.45;;;5.20;99.90;;;;;;5064269;28;20710;-80
2022/12/31 05:31:05;;;;;;;4.32;4.03;;;5.20;99.90;;;;;;5065153;28;20205;-81
2022/12/31 05:33:34;;;;;;;4.13;3.83;;;5.20;99.90;;;;;;5072632;28;20195;-81
2022/12/31 05:36:01;;;;;;;4.40;4.10;;;5.20;99.90;;;;;;5054998;28;20198;-79
2022/12/31 05:38:29;;;;;;;4.30;4.00;;;5.30;99.90;;;;;;5062667;28;20213;-80
2022/12/31 05:41:00;;;;;;;4.07;3.78;;;5.30;99.90;;;;;;5061936;28;20670;-79
2022/12/31 05:43:28;;;;;;;4.13;3.83;;;5.30;99.90;;;;;;5062007;28;20218;-80
2022/12/31 05:45:55;;;;;;;4.00;3.80;;;5.30;99.90;;;;;;5051622;28;20190;-79
2022/12/31 05:48:23;;;;;;;3.75;3.45;;;5.30;99.90;;;;;;5029719;28;20203;-80
2022/12/31 05:50:53;;;;;;;4.10;3.88;;;5.30;99.90;;;;;;5064673;28;20200;-81
2022/12/31 05:53:20;;;;;;;4.22;3.92;;;5.30;99.90;;;;;;5059150;28;20219;-79
2022/12/31 05:55:48;;;;;;;4.40;4.05;;;5.30;99.90;;;;;;5049444;28;20209;-81
2022/12/31 05:58:16;;;;;;;4.40;4.10;;;5.30;99.90;;;;;;5031946;28;20221;-80
2022/12/31 06:00:44;;;;;;;4.40;4.10;;;5.30;99.90;;;;;;5060476;28;20579;-79
2022/12/31 06:03:12;;;;;;;4.22;3.92;;;5.30;99.90;;;;;;5064796;28;20568;-80
2022/12/31 06:05:42;;;;;;;4.40;4.10;;;5.30;99.90;;;;;;5062285;28;20221;-79
2022/12/31 06:08:12;;;;;;;4.32;4.03;;;5.30;99.90;;;;;;5044085;28;20199;-79
2022/12/31 06:10:42;;;;;;;4.18;3.88;;;5.20;99.90;;;;;;5065811;28;20229;-79
2022/12/31 06:13:09;;;;;;;3.75;3.45;;;5.20;99.90;;;;;;5060692;28;20300;-80
2022/12/31 06:15:38;;;;;;;3.83;3.60;;;5.20;99.90;;;;;;5066225;28;20222;-81
2022/12/31 06:18:06;;;;;;;4.68;4.28;;;5.20;99.90;;;;;;5061435;28;20313;-79
2022/12/31 06:20:33;;;;;;;4.30;4.00;;;5.30;99.90;;;;;;5060311;28;20226;-79
2022/12/31 06:23:04;;;;;;;4.32;4.03;;;5.30;99.90;;;;;;5049626;28;20203;-82
2022/12/31 06:25:35;;;;;;;4.10;3.80;;;5.30;99.90;;;;;;5062822;28;20308;-81
2022/12/31 06:28:03;;;;;;;4.07;3.78;;;5.30;99.90;;;;;;5026103;28;20209;-83
2022/12/31 06:30:32;;;;;;;4.43;4.03;;;5.30;99.90;;;;;;5060680;28;20260;-79
2022/12/31 06:33:00;;;;;;;5.82;4.25;;;5.30;99.90;;;;;;5068779;28;20202;-81
2022/12/31 06:35:27;;;;;;;6.13;5.63;;;5.30;99.90;;;;;;5068157;28;20218;-80
2022/12/31 06:37:55;;;;;;;6.10;5.50;;;5.30;99.90;;;;;;5069307;28;20219;-79
2022/12/31 06:40:22;;;;;;;6.03;5.53;;;5.20;99.90;;;;;;5067956;28;20214;-79
2022/12/31 06:42:52;;;;;;;5.55;5.15;;;5.20;99.90;;;;;;5073010;28;20183;-83
2022/12/31 06:45:19;;;;;;;5.68;5.18;;;5.20;99.90;;;;;;5060978;28;20214;-79
2022/12/31 06:47:47;;;;;;;5.53;5.03;;;5.20;99.90;;;;;;5065643;28;20604;-79
2022/12/31 06:50:16;;;;;;;5.85;5.35;;;5.20;99.90;;;;;;5070626;28;20707;-82
2022/12/31 06:52:43;;;;;;;5.47;5.07;;;5.30;99.90;;;;;;5068084;28;20205;-79
2022/12/31 06:55:12;;;;;;;4.40;4.10;;;5.30;99.90;;;;;;5067025;28;20642;-80
2022/12/31 06:57:40;;;;;;;5.25;4.85;;;5.30;99.90;;;;;;5049541;28;20202;-79
2022/12/31 07:00:11;;;;;;;4.82;4.43;;;5.30;99.90;;;;;;5066334;28;20218;-79
2022/12/31 07:03:05;;;;;;;4.80;4.40;;;5.30;99.90;;;;;;5047819;28;20252;-79
2022/12/31 07:05:42;;;;;;;4.72;4.35;;;5.30;99.90;;;;;;5051222;28;20248;-79
2022/12/31 07:08:29;;;;;;;5.00;4.60;;;5.30;99.90;;;;;;5061097;28;20222;-80
2022/12/31 07:11:03;;;;;;;5.28;4.88;;;5.30;99.90;;;;;;5059148;28;20217;-82
2022/12/31 07:14:05;;;;;;;4.90;4.57;;;5.30;99.90;;;;;;5050271;28;20241;-79
2022/12/31 07:16:43;;;;;;;5.30;4.80;;;5.30;99.90;;;;;;5064139;28;20201;-79
2022/12/31 07:19:22;;;;;;;4.75;4.30;;;5.30;99.90;;;;;;5066015;28;20218;-79
2022/12/31 07:21:51;;;;;;;5.10;4.70;;;5.30;99.90;;;;;;5051581;28;20209;-80
2022/12/31 07:24:19;;;;;;;4.47;4.18;;;5.30;99.90;;;;;;5068536;28;20230;-81
2022/12/31 07:27:03;;;;;;;3.95;3.65;;;5.40;99.90;;;;;;5065250;28;20574;-79
2022/12/31 07:29:44;;;;;;;4.80;4.50;;;5.40;99.90;;;;;;5067229;28;20226;-79
2022/12/31 07:32:29;;;;;;;5.22;4.82;;;5.50;99.90;;;;;;5062052;28;20198;-79
2022/12/31 07:35:04;;;;;;;5.28;4.82;;;5.60;99.90;;;;;;5074437;28;20229;-81
2022/12/31 07:37:41;;;;;;;5.10;4.70;;;5.60;99.90;;;;;;5066760;28;20205;-79
2022/12/31 07:40:15;;;;;;;5.47;5.03;;;5.60;99.90;;;;;;5031560;28;20233;-80
2022/12/31 07:43:00;;;;;;;4.70;4.40;;;5.70;99.90;;;;;;5052802;28;20205;-76
2022/12/31 07:45:36;;;;;;;5.38;4.97;;;5.70;99.90;;;;;;5059984;28;20210;-76
2022/12/31 07:48:21;;;;;;;5.78;5.28;;;5.80;99.90;;;;;;5066601;28;20202;-76
2022/12/31 07:50:49;;;;;;;5.50;5.10;;;5.80;99.90;;;;;;5067287;28;20222;-76
2022/12/31 07:53:17;;;;;;;5.60;5.10;;;5.80;99.90;;;;;;5055559;28;20222;-77
2022/12/31 07:55:44;;;;;;;5.65;5.15;;;5.90;99.90;;;;;;5071799;28;20201;-76
2022/12/31 07:58:22;;;;;;;6.00;5.55;;;5.90;99.90;;;;;;5058066;28;20287;-75
2022/12/31 08:00:49;;;;;;;5.32;4.93;;;6.00;99.90;;;;;;5065386;28;20217;-76
2022/12/31 08:03:32;;;;;;;5.88;5.40;;;6.10;99.90;;;;;;5065085;28;20222;-76
2022/12/31 08:06:11;;;;;;;6.05;5.50;;;6.20;99.90;;;;;;5064405;28;20199;-76
2022/12/31 08:08:47;;;;;;;5.82;5.32;;;6.30;99.90;;;;;;5062324;28;20249;-76
2022/12/31 08:11:20;;;;;;;6.32;5.72;;;6.40;99.90;;;;;;5050189;28;20198;-76
2022/12/31 08:13:49;;;;;;;5.97;5.47;;;6.50;99.90;;;;;;5064839;28;20692;-76
2022/12/31 08:16:17;;;;;;;7.50;6.80;;;6.60;99.90;;;;;;5035442;28;20245;-78
2022/12/31 08:18:47;;;;;;;7.95;7.18;;;6.70;99.90;;;;;;5068627;28;20218;-78
2022/12/31 08:21:24;;;;;;;8.57;7.78;;;6.70;99.90;;;;;;5047054;28;20671;-78
2022/12/31 08:24:02;;;;;;;7.63;6.75;;;7.00;99.90;;;;;;5067259;28;20225;-78
2022/12/31 08:26:38;;;;;;;8.13;7.32;;;7.80;99.90;;;;;;5062280;28;20205;-78
2022/12/31 08:29:27;;;;;;;11.75;10.55;;;8.60;99.90;;;;;;5066341;28;20431;-79
2022/12/31 08:32:00;;;;;;;21.10;17.17;;;9.10;99.90;;;;;;5063621;28;20214;-81
2022/12/31 08:34:35;;;;;;;20.52;15.73;;;9.50;99.90;;;;;;5048762;28;20217;-84
2022/12/31 08:37:09;;;;;;;13.35;11.48;;;10.10;99.90;;;;;;5068097;28;20247;-82
2022/12/31 08:39:58;;;;;;;11.25;10.07;;;10.50;99.90;;;;;;5052900;28;20272;-79
2022/12/31 08:42:32;;;;;;;10.25;9.10;;;10.40;99.90;;;;;;5071693;28;20198;-80
2022/12/31 08:45:10;;;;;;;27.17;20.67;;;10.20;99.90;;;;;;5050574;28;20899;-80
2022/12/31 08:47:45;;;;;;;23.30;20.38;;;10.00;99.90;;;;;;5065269;28;20194;-80
2022/12/31 08:50:18;;;;;;;19.65;16.00;;;9.90;99.90;;;;;;5068635;28;20773;-81
2022/12/31 08:52:48;;;;;;;17.23;14.95;;;9.80;99.90;;;;;;5069800;28;21839;-86
2022/12/31 08:55:18;;;;;;;12.68;11.15;;;10.00;99.90;;;;;;5063640;28;20599;-81
2022/12/31 08:57:54;;;;;;;12.55;11.20;;;10.40;99.90;;;;;;5068865;28;20281;-86
2022/12/31 09:00:22;;;;;;;10.60;9.48;;;10.90;99.90;;;;;;5066128;28;20222;-89
2022/12/31 09:03:04;;;;;;;10.20;9.25;;;11.50;99.90;;;;;;5054814;28;20198;-85
2022/12/31 09:05:39;;;;;;;10.38;9.27;;;12.10;99.90;;;;;;5049014;28;20218;-86
2022/12/31 09:08:24;;;;;;;9.27;8.32;;;12.70;99.90;;;;;;5070149;28;20208;-85
2022/12/31 09:10:59;;;;;;;11.32;10.13;;;13.30;99.90;;;;;;5060640;28;20221;-85
2022/12/31 09:13:38;;;;;;;9.43;8.45;;;13.80;99.90;;;;;;5063708;28;20220;-82
2022/12/31 09:16:14;;;;;;;10.35;8.90;;;14.40;99.90;;;;;;5065903;28;20194;-84
2022/12/31 09:18:43;;;;;;;9.38;8.10;;;15.10;99.90;;;;;;5067055;28;20581;-80
2022/12/31 09:21:16;;;;;;;8.30;7.53;;;16.20;99.90;;;;;;5068772;28;20202;-80
2022/12/31 09:23:44;;;;;;;7.63;6.93;;;17.40;99.90;;;;;;5073438;28;20225;-80
2022/12/31 09:26:22;;;;;;;8.00;7.30;;;18.60;99.90;;;;;;5062978;28;20202;-87
2022/12/31 09:28:59;;;;;;;7.97;7.10;;;19.60;99.90;;;;;;5074397;28;20221;-82
2022/12/31 09:31:34;;;;;;;7.55;6.65;;;20.50;99.90;;;;;;5067922;28;20201;-82
2022/12/31 09:34:07;;;;;;;8.00;5.97;;;21.20;99.90;;;;;;5031658;28;20666;-82
2022/12/31 09:36:41;;;;;;;6.75;6.15;;;21.60;99.90;;;;;;5067660;28;20267;-81
2022/12/31 09:39:16;;;;;;;7.85;7.05;;;22.00;99.90;;;;;;5067194;28;20217;-80
2022/12/31 09:42:18;;;;;;;8.60;7.68;;;22.00;99.90;;;;;;5065284;28;20269;-82
2022/12/31 09:45:25;;;;;;;9.40;8.50;;;21.60;99.90;;;;;;5030730;28;20221;-83
2022/12/31 09:48:33;;;;;;;9.82;8.35;;;21.70;99.90;;;;;;5063510;28;20206;-81
2022/12/31 09:51:12;;;;;;;9.13;8.13;;;21.70;99.90;;;;;;5052771;28;20221;-81
2022/12/31 09:54:15;;;;;;;9.13;7.50;;;22.00;99.90;;;;;;5059507;28;20283;-80
2022/12/31 09:56:51;;;;;;;8.55;7.68;;;22.50;99.70;;;;;;5061384;28;20201;-80
2022/12/31 09:59:25;;;;;;;8.00;7.20;;;22.40;99.90;;;;;;5061847;28;20213;-78
2022/12/31 10:01:59;;;;;;;9.35;8.35;;;22.40;99.60;;;;;;5063585;28;20189;-78
2022/12/31 10:04:48;;;;;;;8.57;7.68;;;21.80;99.30;;;;;;5067606;28;20391;-84
2022/12/31 10:07:32;;;;;;;11.65;8.40;;;20.40;99.30;;;;;;5045928;28;20291;-80
2022/12/31 10:10:20;;;;;;;9.40;8.50;;;18.80;99.90;;;;;;5051360;28;20221;-79
2022/12/31 10:13:27;;;;;;;9.25;8.40;;;17.40;99.90;;;;;;5073822;28;20229;-86
2022/12/31 10:16:28;;;;;;;9.57;8.63;;;16.50;99.90;;;;;;5062024;28;20240;-82
2022/12/31 10:19:26;;;;;;;10.30;7.93;;;16.00;99.90;;;;;;5063442;28;20279;-80
2022/12/31 10:22:08;;;;;;;8.93;8.02;;;15.60;99.90;;;;;;5065004;28;20281;-82
2022/12/31 10:24:57;;;;;;;9.43;8.25;;;15.20;99.90;;;;;;5064644;28;20233;-83
2022/12/31 10:27:47;;;;;;;9.90;8.77;;;14.80;99.90;;;;;;5063233;28;20193;-80
2022/12/31 10:30:17;;;;;;;10.68;8.32;;;14.70;99.90;;;;;;5062326;28;20225;-83
2022/12/31 10:33:08;;;;;;;8.95;7.55;;;14.20;99.90;;;;;;5060111;28;20232;-84
2022/12/31 10:35:42;;;;;;;9.32;8.27;;;13.90;99.90;;;;;;5057210;28;20234;-79
2022/12/31 10:38:21;;;;;;;12.35;9.98;;;13.60;99.90;;;;;;5061913;28;20190;-89
2022/12/31 10:41:20;;;;;;;10.88;9.00;;;13.60;99.90;;;;;;5057814;28;20219;-82
2022/12/31 10:44:21;;;;;;;10.90;9.65;;;13.60;99.90;;;;;;5048897;28;20218;-85
2022/12/31 10:47:33;;;;;;;11.88;8.82;;;13.60;99.90;;;;;;5036875;28;20194;-80
2022/12/31 10:50:34;;;;;;;9.63;8.60;;;13.80;99.90;;;;;;5014303;28;20226;-85
2022/12/31 10:53:35;;;;;;;10.10;8.73;;;14.30;99.90;;;;;;5067289;28;20197;-82
2022/12/31 10:56:33;;;;;;;8.90;8.00;;;14.50;99.90;;;;;;5040652;28;20918;-81
2022/12/31 10:59:25;;;;;;;8.93;8.05;;;14.50;99.90;;;;;;5049271;28;20218;-82
2022/12/31 11:02:07;;;;;;;8.48;7.55;;;14.80;99.90;;;;;;5061474;28;20284;-79
2022/12/31 11:05:07;;;;;;;7.93;7.13;;;15.00;99.90;;;;;;5064708;28;20230;-81
2022/12/31 11:08:04;;;;;;;8.50;7.55;;;15.00;99.90;;;;;;5034355;28;20194;-79
2022/12/31 11:11:07;;;;;;;8.10;7.40;;;15.00;99.90;;;;;;5056662;28;20924;-82
2022/12/31 11:14:03;;;;;;;8.25;7.45;;;15.10;99.90;;;;;;5064892;28;20222;-83
2022/12/31 11:16:52;;;;;;;8.05;7.25;;;14.90;99.90;;;;;;5064650;28;20359;-82
2022/12/31 11:19:31;;;;;;;8.07;7.18;;;15.00;99.90;;;;;;5053545;28;20325;-82
2022/12/31 11:22:16;;;;;;;8.60;7.25;;;15.20;99.90;;;;;;5068292;28;20206;-87
2022/12/31 11:25:01;;;;;;;7.97;7.28;;;15.20;99.90;;;;;;5080961;28;20226;-85
2022/12/31 11:27:45;;;;;;;7.88;7.15;;;15.30;99.90;;;;;;5055550;28;20190;-81
2022/12/31 11:30:22;;;;;;;8.35;7.43;;;15.30;99.90;;;;;;5049684;28;20218;-82
2022/12/31 11:33:07;;;;;;;9.82;7.18;;;15.40;99.90;;;;;;5068805;28;20198;-83
2022/12/31 11:35:50;;;;;;;8.98;7.35;;;15.10;99.90;;;;;;5071723;28;20226;-85
2022/12/31 11:38:23;;;;;;;9.65;7.22;;;15.00;99.90;;;;;;5074558;28;20190;-80
2022/12/31 11:41:02;;;;;;;8.38;7.32;;;14.80;99.90;;;;;;5074566;28;20222;-83
2022/12/31 11:43:37;;;;;;;7.43;6.47;;;14.60;99.90;;;;;;5069041;28;20218;-81
2022/12/31 11:46:32;;;;;;;6.65;6.05;;;14.60;99.90;;;;;;5077031;28;20190;-81
2022/12/31 11:49:28;;;;;;;7.05;6.35;;;14.60;99.90;;;;;;5062100;28;20225;-82
2022/12/31 11:52:20;;;;;;;6.75;6.15;;;14.70;99.90;;;;;;5075994;28;20800;-80
2022/12/31 11:55:01;;;;;;;7.03;6.32;;;14.70;99.90;;;;;;5069879;28;20282;-85
2022/12/31 11:57:33;;;;;;;7.00;6.30;;;14.60;99.90;;;;;;5076239;28;20197;-88
2022/12/31 12:00:07;;;;;;;7.60;6.90;;;14.80;99.90;;;;;;5072092;28;20225;-86
2022/12/31 12:02:42;;;;;;;7.53;6.65;;;14.80;99.90;;;;;;5075490;28;20210;-83
2022/12/31 12:05:14;;;;;;;7.38;6.68;;;14.70;99.90;;;;;;5050782;28;20222;-80
2022/12/31 12:07:41;;;;;;;7.82;7.03;;;14.50;99.90;;;;;;5073209;28;20218;-82
2022/12/31 12:10:19;;;;;;;7.30;6.53;;;14.50;99.90;;;;;;5073376;28;20217;-81
2022/12/31 12:12:47;;;;;;;10.27;7.22;;;14.30;99.90;;;;;;5068953;28;20194;-80
2022/12/31 12:15:23;;;;;;;8.65;6.78;;;14.30;99.90;;;;;;5065545;28;20218;-83
2022/12/31 12:17:54;;;;;;;7.20;6.50;;;14.30;99.90;;;;;;5068185;28;20193;-85
2022/12/31 12:20:30;;;;;;;8.45;7.72;;;14.20;99.90;;;;;;5066681;28;20218;-87
2022/12/31 12:23:01;;;;;;;7.28;6.57;;;14.20;99.90;;;;;;5046452;28;20586;-80
2022/12/31 12:25:38;;;;;;;7.55;6.85;;;14.20;99.90;;;;;;5049822;28;20219;-81
2022/12/31 12:28:19;;;;;;;9.38;7.80;;;14.30;99.90;;;;;;5069116;28;20194;-80
2022/12/31 12:30:53;;;;;;;8.13;7.30;;;14.40;99.90;;;;;;5052358;28;20229;-82
2022/12/31 12:33:22;;;;;;;8.77;7.88;;;14.50;99.90;;;;;;5071713;28;20211;-82
2022/12/31 12:35:49;;;;;;;9.45;7.78;;;14.50;99.90;;;;;;5074005;28;20212;-85
2022/12/31 12:38:18;;;;;;;9.82;8.52;;;14.40;99.90;;;;;;5066901;28;20195;-86
2022/12/31 12:40:55;;;;;;;9.57;8.27;;;14.10;99.90;;;;;;5063964;28;20845;-82
2022/12/31 12:43:25;;;;;;;8.13;7.32;;;13.90;99.90;;;;;;5057628;28;20714;-84
2022/12/31 12:45:53;;;;;;;7.97;7.18;;;13.80;99.90;;;;;;5063897;28;20262;-79
2022/12/31 12:48:29;;;;;;;7.60;6.90;;;13.70;99.90;;;;;;5065471;28;20242;-79
2022/12/31 12:50:59;;;;;;;8.13;7.32;;;13.80;99.90;;;;;;5062871;28;20212;-80
2022/12/31 12:53:43;;;;;;;8.00;6.95;;;14.00;99.90;;;;;;5062411;28;20297;-83
2022/12/31 12:56:21;;;;;;;7.35;6.65;;;13.90;99.90;;;;;;5061952;28;20198;-86
2022/12/31 12:58:59;;;;;;;7.32;6.63;;;13.80;99.90;;;;;;5063933;28;20684;-82
2022/12/31 13:01:37;;;;;;;7.32;6.63;;;13.70;99.90;;;;;;5065825;28;20225;-79
2022/12/31 13:04:41;;;;;;;7.10;6.40;;;13.70;99.90;;;;;;5067945;28;20882;-79
2022/12/31 13:07:19;;;;;;;6.88;6.13;;;13.60;99.90;;;;;;5047818;28;20224;-79
2022/12/31 13:10:11;;;;;;;7.53;6.78;;;13.60;99.90;;;;;;5069163;28;20257;-80
2022/12/31 13:12:47;;;;;;;7.32;6.63;;;13.50;99.90;;;;;;5048880;28;20300;-83
2022/12/31 13:15:22;;;;;;;7.88;7.07;;;13.30;99.90;;;;;;5051973;28;20221;-83
2022/12/31 13:18:04;;;;;;;7.32;6.63;;;13.20;99.90;;;;;;5070898;28;20194;-80
2022/12/31 13:20:41;;;;;;;7.47;6.65;;;13.10;99.90;;;;;;5074699;28;20222;-85
2022/12/31 13:23:20;;;;;;;7.88;6.95;;;13.00;99.90;;;;;;5052708;28;20218;-84
2022/12/31 13:26:04;;;;;;;7.40;6.63;;;13.10;99.90;;;;;;5073035;28;20234;-84
2022/12/31 13:28:33;;;;;;;7.45;6.50;;;13.20;99.90;;;;;;5054250;28;20190;-81
2022/12/31 13:31:04;;;;;;;6.72;5.95;;;13.30;99.90;;;;;;5037653;28;20221;-85
2022/12/31 13:33:36;;;;;;;7.00;6.30;;;13.20;99.90;;;;;;5049840;28;20221;-82
2022/12/31 13:36:10;;;;;;;7.03;6.32;;;13.30;99.90;;;;;;5063084;28;20198;-80
2022/12/31 13:38:40;;;;;;;6.90;6.20;;;13.20;99.90;;;;;;5061829;28;20755;-84
2022/12/31 13:41:14;;;;;;;7.72;6.97;;;13.10;99.90;;;;;;5045725;28;20245;-82
2022/12/31 13:43:49;;;;;;;7.20;6.60;;;12.90;99.90;;;;;;5063615;28;20222;-77
2022/12/31 13:46:23;;;;;;;7.38;6.68;;;13.00;99.90;;;;;;5073923;28;20194;-78
2022/12/31 13:48:54;;;;;;;7.55;6.88;;;13.00;99.90;;;;;;5057933;28;20564;-82